sensor_id;sensor_type;location;lat;lon;timestamp;temperature;humidity
13115;DHT22;6623;52.120;8.660;2023-07-24T00:00:40;25.10;51.50
13115;DHT22;6623;52.120;8.660;2023-07-24T00:03:06;25.10;51.50
13115;DHT22;6623;52.120;8.660;2023-07-24T00:05:32;25.10;51.50
13115;DHT22;6623;52.120;8.660;2023-07-24T00:07:57;25.10;51.50
13115;DHT22;6623;52.120;8.660;2023-07-24T00:10:23;25.10;51.50
13115;DHT22;6623;52.120;8.660;2023-07-24T00:12:48;25.10;51.60
13115;DHT22;6623;52.120;8.660;2023-07-24T00:15:14;25.10;51.60
13115;DHT22;6623;52.120;8.660;2023-07-24T00:17:39;25.10;51.60
13115;DHT22;6623;52.120;8.660;2023-07-24T00:20:06;25.10;51.60
13115;DHT22;6623;52.120;8.660;2023-07-24T00:22:32;25.10;51.60
13115;DHT22;6623;52.120;8.660;2023-07-24T00:24:57;25.10;51.60
13115;DHT22;6623;52.120;8.660;2023-07-24T00:27:23;25.10;51.60
13115;DHT22;6623;52.120;8.660;2023-07-24T00:29:48;25.10;51.60
13115;DHT22;6623;52.120;8.660;2023-07-24T00:32:14;25.10;51.60
13115;DHT22;6623;52.120;8.660;2023-07-24T00:34:39;25.10;51.60
13115;DHT22;6623;52.120;8.660;2023-07-24T00:37:06;25.10;51.60
13115;DHT22;6623;52.120;8.660;2023-07-24T00:39:32;25.10;51.60
13115;DHT22;6623;52.120;8.660;2023-07-24T00:41:57;25.10;51.60
13115;DHT22;6623;52.120;8.660;2023-07-24T00:44:23;25.10;51.60
13115;DHT22;6623;52.120;8.660;2023-07-24T00:46:49;25.10;51.60
13115;DHT22;6623;52.120;8.660;2023-07-24T00:49:15;25.10;51.60
13115;DHT22;6623;52.120;8.660;2023-07-24T00:51:41;25.10;51.70
13115;DHT22;6623;52.120;8.660;2023-07-24T00:54:07;25.10;51.70
13115;DHT22;6623;52.120;8.660;2023-07-24T00:56:32;25.10;51.70
13115;DHT22;6623;52.120;8.660;2023-07-24T00:58:59;25.10;51.70
13115;DHT22;6623;52.120;8.660;2023-07-24T01:01:25;25.10;51.70
13115;DHT22;6623;52.120;8.660;2023-07-24T01:03:51;25.10;51.70
13115;DHT22;6623;52.120;8.660;2023-07-24T01:06:17;25.10;51.70
13115;DHT22;6623;52.120;8.660;2023-07-24T01:08:43;25.10;51.70
13115;DHT22;6623;52.120;8.660;2023-07-24T01:11:15;25.10;51.70
13115;DHT22;6623;52.120;8.660;2023-07-24T01:13:47;25.10;51.70
13115;DHT22;6623;52.120;8.660;2023-07-24T01:16:18;25.10;51.70
13115;DHT22;6623;52.120;8.660;2023-07-24T01:18:45;25.10;51.80
13115;DHT22;6623;52.120;8.660;2023-07-24T01:21:11;25.10;51.80
13115;DHT22;6623;52.120;8.660;2023-07-24T01:23:51;25.10;51.70
13115;DHT22;6623;52.120;8.660;2023-07-24T01:26:21;25.10;51.80
13115;DHT22;6623;52.120;8.660;2023-07-24T01:28:47;25.10;51.70
13115;DHT22;6623;52.120;8.660;2023-07-24T01:31:12;25.10;51.80
13115;DHT22;6623;52.120;8.660;2023-07-24T01:33:39;25.10;51.80
13115;DHT22;6623;52.120;8.660;2023-07-24T01:36:05;25.10;51.80
13115;DHT22;6623;52.120;8.660;2023-07-24T01:38:34;25.10;51.80
13115;DHT22;6623;52.120;8.660;2023-07-24T01:41:00;25.10;51.80
13115;DHT22;6623;52.120;8.660;2023-07-24T01:43:27;25.10;51.80
13115;DHT22;6623;52.120;8.660;2023-07-24T01:45:53;25.10;51.70
13115;DHT22;6623;52.120;8.660;2023-07-24T01:48:19;25.10;51.70
13115;DHT22;6623;52.120;8.660;2023-07-24T01:50:44;25.10;51.70
13115;DHT22;6623;52.120;8.660;2023-07-24T01:53:10;25.10;51.70
13115;DHT22;6623;52.120;8.660;2023-07-24T01:55:36;25.10;51.80
13115;DHT22;6623;52.120;8.660;2023-07-24T01:58:01;25.10;51.70
13115;DHT22;6623;52.120;8.660;2023-07-24T02:00:27;25.10;51.70
13115;DHT22;6623;52.120;8.660;2023-07-24T02:02:52;25.10;51.70
13115;DHT22;6623;52.120;8.660;2023-07-24T02:05:18;25.10;52.30
13115;DHT22;6623;52.120;8.660;2023-07-24T02:07:43;25.10;51.70
13115;DHT22;6623;52.120;8.660;2023-07-24T02:10:09;25.10;51.70
13115;DHT22;6623;52.120;8.660;2023-07-24T02:12:35;25.10;51.60
13115;DHT22;6623;52.120;8.660;2023-07-24T02:15:01;25.10;51.60
13115;DHT22;6623;52.120;8.660;2023-07-24T02:17:26;25.10;51.70
13115;DHT22;6623;52.120;8.660;2023-07-24T02:19:52;25.10;51.60
13115;DHT22;6623;52.120;8.660;2023-07-24T02:22:17;25.10;51.60
13115;DHT22;6623;52.120;8.660;2023-07-24T02:24:43;25.10;51.60
13115;DHT22;6623;52.120;8.660;2023-07-24T02:27:12;25.10;51.60
13115;DHT22;6623;52.120;8.660;2023-07-24T02:29:38;25.10;51.60
13115;DHT22;6623;52.120;8.660;2023-07-24T02:32:04;25.20;51.70
13115;DHT22;6623;52.120;8.660;2023-07-24T02:34:29;25.10;51.60
13115;DHT22;6623;52.120;8.660;2023-07-24T02:36:55;25.10;51.60
13115;DHT22;6623;52.120;8.660;2023-07-24T02:39:21;25.10;51.60
13115;DHT22;6623;52.120;8.660;2023-07-24T02:41:49;25.10;51.50
13115;DHT22;6623;52.120;8.660;2023-07-24T02:44:15;25.10;51.60
13115;DHT22;6623;52.120;8.660;2023-07-24T02:46:41;25.10;51.50
13115;DHT22;6623;52.120;8.660;2023-07-24T02:49:07;25.10;51.50
13115;DHT22;6623;52.120;8.660;2023-07-24T02:51:32;25.10;51.50
13115;DHT22;6623;52.120;8.660;2023-07-24T02:53:58;25.10;51.50
13115;DHT22;6623;52.120;8.660;2023-07-24T02:56:24;25.10;51.50
13115;DHT22;6623;52.120;8.660;2023-07-24T02:58:49;25.10;51.50
13115;DHT22;6623;52.120;8.660;2023-07-24T03:01:15;25.10;51.50
13115;DHT22;6623;52.120;8.660;2023-07-24T03:03:41;25.10;51.50
13115;DHT22;6623;52.120;8.660;2023-07-24T03:06:07;25.10;51.50
13115;DHT22;6623;52.120;8.660;2023-07-24T03:08:32;25.10;51.50
13115;DHT22;6623;52.120;8.660;2023-07-24T03:10:59;25.10;51.50
13115;DHT22;6623;52.120;8.660;2023-07-24T03:13:25;25.10;51.50
13115;DHT22;6623;52.120;8.660;2023-07-24T03:15:55;25.10;51.40
13115;DHT22;6623;52.120;8.660;2023-07-24T03:18:20;25.10;51.40
13115;DHT22;6623;52.120;8.660;2023-07-24T03:20:46;25.10;51.40
13115;DHT22;6623;52.120;8.660;2023-07-24T03:23:12;25.10;51.40
13115;DHT22;6623;52.120;8.660;2023-07-24T03:25:37;25.10;51.40
13115;DHT22;6623;52.120;8.660;2023-07-24T03:28:03;25.10;51.40
13115;DHT22;6623;52.120;8.660;2023-07-24T03:30:29;25.10;51.40
13115;DHT22;6623;52.120;8.660;2023-07-24T03:32:54;25.10;51.40
13115;DHT22;6623;52.120;8.660;2023-07-24T03:35:20;25.10;51.40
13115;DHT22;6623;52.120;8.660;2023-07-24T03:37:45;25.10;51.30
13115;DHT22;6623;52.120;8.660;2023-07-24T03:40:11;25.10;52.00
13115;DHT22;6623;52.120;8.660;2023-07-24T03:42:37;25.10;51.30
13115;DHT22;6623;52.120;8.660;2023-07-24T03:45:03;25.10;51.40
13115;DHT22;6623;52.120;8.660;2023-07-24T03:47:29;25.10;51.60
13115;DHT22;6623;52.120;8.660;2023-07-24T03:49:54;25.10;51.40
13115;DHT22;6623;52.120;8.660;2023-07-24T03:52:20;25.10;51.40
13115;DHT22;6623;52.120;8.660;2023-07-24T03:54:46;25.10;51.40
13115;DHT22;6623;52.120;8.660;2023-07-24T03:57:12;25.10;51.30
13115;DHT22;6623;52.120;8.660;2023-07-24T03:59:37;25.10;51.30
13115;DHT22;6623;52.120;8.660;2023-07-24T04:02:03;25.10;51.30
13115;DHT22;6623;52.120;8.660;2023-07-24T04:04:29;25.10;51.30
13115;DHT22;6623;52.120;8.660;2023-07-24T04:06:55;25.10;51.30
13115;DHT22;6623;52.120;8.660;2023-07-24T04:09:20;25.10;51.30
13115;DHT22;6623;52.120;8.660;2023-07-24T04:11:46;25.10;51.30
13115;DHT22;6623;52.120;8.660;2023-07-24T04:14:11;25.10;51.30
13115;DHT22;6623;52.120;8.660;2023-07-24T04:16:37;25.10;51.30
13115;DHT22;6623;52.120;8.660;2023-07-24T04:19:03;25.10;51.30
13115;DHT22;6623;52.120;8.660;2023-07-24T04:21:29;25.10;51.30
13115;DHT22;6623;52.120;8.660;2023-07-24T04:23:54;25.10;51.30
13115;DHT22;6623;52.120;8.660;2023-07-24T04:26:20;25.10;51.30
13115;DHT22;6623;52.120;8.660;2023-07-24T04:28:45;25.10;51.30
13115;DHT22;6623;52.120;8.660;2023-07-24T04:31:11;25.10;51.30
13115;DHT22;6623;52.120;8.660;2023-07-24T04:33:37;25.10;51.20
13115;DHT22;6623;52.120;8.660;2023-07-24T04:36:02;25.10;51.20
13115;DHT22;6623;52.120;8.660;2023-07-24T04:38:28;25.10;51.20
13115;DHT22;6623;52.120;8.660;2023-07-24T04:40:53;25.10;51.30
13115;DHT22;6623;52.120;8.660;2023-07-24T04:43:19;25.10;51.20
13115;DHT22;6623;52.120;8.660;2023-07-24T04:45:45;25.10;51.20
13115;DHT22;6623;52.120;8.660;2023-07-24T04:48:10;25.10;51.20
13115;DHT22;6623;52.120;8.660;2023-07-24T04:50:36;25.10;51.20
13115;DHT22;6623;52.120;8.660;2023-07-24T04:53:01;25.10;51.20
13115;DHT22;6623;52.120;8.660;2023-07-24T04:55:27;25.10;51.20
13115;DHT22;6623;52.120;8.660;2023-07-24T04:57:52;25.10;51.20
13115;DHT22;6623;52.120;8.660;2023-07-24T05:00:18;25.10;51.30
13115;DHT22;6623;52.120;8.660;2023-07-24T05:02:43;25.10;51.20
13115;DHT22;6623;52.120;8.660;2023-07-24T05:05:09;25.10;51.20
13115;DHT22;6623;52.120;8.660;2023-07-24T05:07:35;25.10;51.20
13115;DHT22;6623;52.120;8.660;2023-07-24T05:10:00;25.10;51.20
13115;DHT22;6623;52.120;8.660;2023-07-24T05:12:26;25.10;51.20
13115;DHT22;6623;52.120;8.660;2023-07-24T05:14:51;25.10;51.20
13115;DHT22;6623;52.120;8.660;2023-07-24T05:17:17;25.10;51.20
13115;DHT22;6623;52.120;8.660;2023-07-24T05:19:42;25.10;51.20
13115;DHT22;6623;52.120;8.660;2023-07-24T05:22:08;25.10;51.20
13115;DHT22;6623;52.120;8.660;2023-07-24T05:24:36;25.10;51.20
13115;DHT22;6623;52.120;8.660;2023-07-24T05:27:02;25.10;51.20
13115;DHT22;6623;52.120;8.660;2023-07-24T05:29:27;25.10;51.20
13115;DHT22;6623;52.120;8.660;2023-07-24T05:31:53;25.10;51.20
13115;DHT22;6623;52.120;8.660;2023-07-24T05:34:18;25.10;51.20
13115;DHT22;6623;52.120;8.660;2023-07-24T05:36:44;25.10;51.30
13115;DHT22;6623;52.120;8.660;2023-07-24T05:39:09;25.10;51.30
13115;DHT22;6623;52.120;8.660;2023-07-24T05:41:35;25.10;51.30
13115;DHT22;6623;52.120;8.660;2023-07-24T05:44:00;25.10;51.30
13115;DHT22;6623;52.120;8.660;2023-07-24T05:46:26;25.10;51.30
13115;DHT22;6623;52.120;8.660;2023-07-24T05:48:51;25.10;51.30
13115;DHT22;6623;52.120;8.660;2023-07-24T05:51:17;25.10;51.40
13115;DHT22;6623;52.120;8.660;2023-07-24T05:53:43;25.10;51.40
13115;DHT22;6623;52.120;8.660;2023-07-24T05:56:08;25.10;52.00
13115;DHT22;6623;52.120;8.660;2023-07-24T05:58:34;25.10;51.40
13115;DHT22;6623;52.120;8.660;2023-07-24T06:01:00;25.10;51.50
13115;DHT22;6623;52.120;8.660;2023-07-24T06:03:26;25.10;51.50
13115;DHT22;6623;52.120;8.660;2023-07-24T06:05:53;25.10;51.50
13115;DHT22;6623;52.120;8.660;2023-07-24T06:08:19;25.10;51.50
13115;DHT22;6623;52.120;8.660;2023-07-24T06:10:50;25.10;51.50
13115;DHT22;6623;52.120;8.660;2023-07-24T06:13:16;25.10;51.50
13115;DHT22;6623;52.120;8.660;2023-07-24T06:15:42;25.10;51.50
13115;DHT22;6623;52.120;8.660;2023-07-24T06:18:07;25.10;51.60
13115;DHT22;6623;52.120;8.660;2023-07-24T06:20:33;25.10;51.60
13115;DHT22;6623;52.120;8.660;2023-07-24T06:22:58;25.10;51.60
13115;DHT22;6623;52.120;8.660;2023-07-24T06:25:24;25.10;51.60
13115;DHT22;6623;52.120;8.660;2023-07-24T06:27:49;25.10;51.60
13115;DHT22;6623;52.120;8.660;2023-07-24T06:30:15;25.10;51.60
13115;DHT22;6623;52.120;8.660;2023-07-24T06:32:41;25.10;51.60
13115;DHT22;6623;52.120;8.660;2023-07-24T06:35:06;25.10;51.60
13115;DHT22;6623;52.120;8.660;2023-07-24T06:37:32;25.10;51.60
13115;DHT22;6623;52.120;8.660;2023-07-24T06:39:57;25.10;51.60
13115;DHT22;6623;52.120;8.660;2023-07-24T06:42:23;25.10;51.70
13115;DHT22;6623;52.120;8.660;2023-07-24T06:44:49;25.10;51.60
13115;DHT22;6623;52.120;8.660;2023-07-24T06:47:14;25.10;51.60
13115;DHT22;6623;52.120;8.660;2023-07-24T06:49:40;25.10;51.70
13115;DHT22;6623;52.120;8.660;2023-07-24T06:52:05;25.10;51.70
13115;DHT22;6623;52.120;8.660;2023-07-24T06:54:31;25.10;51.70
13115;DHT22;6623;52.120;8.660;2023-07-24T06:56:57;25.10;51.70
13115;DHT22;6623;52.120;8.660;2023-07-24T06:59:23;25.10;51.60
13115;DHT22;6623;52.120;8.660;2023-07-24T07:01:48;25.10;51.60
13115;DHT22;6623;52.120;8.660;2023-07-24T07:04:14;25.10;51.70
13115;DHT22;6623;52.120;8.660;2023-07-24T07:06:40;25.10;51.60
13115;DHT22;6623;52.120;8.660;2023-07-24T07:09:05;25.10;51.70
13115;DHT22;6623;52.120;8.660;2023-07-24T07:11:31;25.10;51.70
13115;DHT22;6623;52.120;8.660;2023-07-24T07:13:57;25.10;51.70
13115;DHT22;6623;52.120;8.660;2023-07-24T07:16:22;25.10;51.70
13115;DHT22;6623;52.120;8.660;2023-07-24T07:18:48;25.10;51.70
13115;DHT22;6623;52.120;8.660;2023-07-24T07:21:13;25.10;51.70
13115;DHT22;6623;52.120;8.660;2023-07-24T07:23:39;25.10;51.70
13115;DHT22;6623;52.120;8.660;2023-07-24T07:26:05;25.10;51.70
13115;DHT22;6623;52.120;8.660;2023-07-24T07:28:31;25.10;51.70
13115;DHT22;6623;52.120;8.660;2023-07-24T07:30:56;25.10;51.80
13115;DHT22;6623;52.120;8.660;2023-07-24T07:33:22;25.10;51.80
13115;DHT22;6623;52.120;8.660;2023-07-24T07:35:47;25.10;51.80
13115;DHT22;6623;52.120;8.660;2023-07-24T07:38:13;25.10;51.80
13115;DHT22;6623;52.120;8.660;2023-07-24T07:40:39;25.10;51.80
13115;DHT22;6623;52.120;8.660;2023-07-24T07:43:04;25.10;52.50
13115;DHT22;6623;52.120;8.660;2023-07-24T07:45:30;25.10;51.90
13115;DHT22;6623;52.120;8.660;2023-07-24T07:47:55;25.10;51.90
13115;DHT22;6623;52.120;8.660;2023-07-24T07:50:21;25.10;51.90
13115;DHT22;6623;52.120;8.660;2023-07-24T07:52:52;25.10;51.90
13115;DHT22;6623;52.120;8.660;2023-07-24T07:55:18;25.10;52.00
13115;DHT22;6623;52.120;8.660;2023-07-24T07:57:44;25.10;52.00
13115;DHT22;6623;52.120;8.660;2023-07-24T08:00:10;25.10;52.00
13115;DHT22;6623;52.120;8.660;2023-07-24T08:02:36;25.10;52.00
13115;DHT22;6623;52.120;8.660;2023-07-24T08:05:09;25.10;52.10
13115;DHT22;6623;52.120;8.660;2023-07-24T08:07:35;25.10;52.10
13115;DHT22;6623;52.120;8.660;2023-07-24T08:10:01;25.10;52.10
13115;DHT22;6623;52.120;8.660;2023-07-24T08:12:27;25.10;52.10
13115;DHT22;6623;52.120;8.660;2023-07-24T08:14:52;25.00;52.10
13115;DHT22;6623;52.120;8.660;2023-07-24T08:17:18;25.10;52.20
13115;DHT22;6623;52.120;8.660;2023-07-24T08:19:43;25.10;52.20
13115;DHT22;6623;52.120;8.660;2023-07-24T08:22:09;25.10;52.30
13115;DHT22;6623;52.120;8.660;2023-07-24T08:24:35;25.10;52.20
13115;DHT22;6623;52.120;8.660;2023-07-24T08:27:00;25.10;52.20
13115;DHT22;6623;52.120;8.660;2023-07-24T08:29:26;25.10;52.30
13115;DHT22;6623;52.120;8.660;2023-07-24T08:31:52;25.00;52.20
13115;DHT22;6623;52.120;8.660;2023-07-24T08:34:17;25.10;52.20
13115;DHT22;6623;52.120;8.660;2023-07-24T08:36:43;25.10;52.20
13115;DHT22;6623;52.120;8.660;2023-07-24T08:39:09;25.10;52.20
13115;DHT22;6623;52.120;8.660;2023-07-24T08:41:34;25.10;52.90
13115;DHT22;6623;52.120;8.660;2023-07-24T08:44:01;25.10;52.30
13115;DHT22;6623;52.120;8.660;2023-07-24T08:46:27;25.10;52.30
13115;DHT22;6623;52.120;8.660;2023-07-24T08:48:54;25.10;52.30
13115;DHT22;6623;52.120;8.660;2023-07-24T08:51:20;25.10;52.40
13115;DHT22;6623;52.120;8.660;2023-07-24T08:53:47;25.10;52.40
13115;DHT22;6623;52.120;8.660;2023-07-24T08:56:13;25.10;52.50
13115;DHT22;6623;52.120;8.660;2023-07-24T08:58:40;25.10;52.50
13115;DHT22;6623;52.120;8.660;2023-07-24T09:01:06;25.10;52.40
13115;DHT22;6623;52.120;8.660;2023-07-24T09:03:32;25.10;52.40
13115;DHT22;6623;52.120;8.660;2023-07-24T09:05:58;25.10;52.40
13115;DHT22;6623;52.120;8.660;2023-07-24T09:08:34;25.10;52.50
13115;DHT22;6623;52.120;8.660;2023-07-24T09:11:01;25.10;52.50
13115;DHT22;6623;52.120;8.660;2023-07-24T09:13:27;25.10;52.50
13115;DHT22;6623;52.120;8.660;2023-07-24T09:15:53;25.10;52.60
13115;DHT22;6623;52.120;8.660;2023-07-24T09:18:19;25.10;52.60
13115;DHT22;6623;52.120;8.660;2023-07-24T09:20:45;25.10;52.60
13115;DHT22;6623;52.120;8.660;2023-07-24T09:23:12;25.10;52.70
13115;DHT22;6623;52.120;8.660;2023-07-24T09:25:40;25.10;52.80
13115;DHT22;6623;52.120;8.660;2023-07-24T09:28:13;25.10;52.80
13115;DHT22;6623;52.120;8.660;2023-07-24T09:30:39;25.10;52.80
13115;DHT22;6623;52.120;8.660;2023-07-24T09:33:05;25.10;52.80
13115;DHT22;6623;52.120;8.660;2023-07-24T09:35:31;25.10;52.80
13115;DHT22;6623;52.120;8.660;2023-07-24T09:38:07;25.10;52.80
13115;DHT22;6623;52.120;8.660;2023-07-24T09:40:40;25.10;52.80
13115;DHT22;6623;52.120;8.660;2023-07-24T09:43:19;25.10;52.80
13115;DHT22;6623;52.120;8.660;2023-07-24T09:45:45;25.10;52.90
13115;DHT22;6623;52.120;8.660;2023-07-24T09:48:12;25.10;52.90
13115;DHT22;6623;52.120;8.660;2023-07-24T09:50:40;25.10;52.90
13115;DHT22;6623;52.120;8.660;2023-07-24T09:53:20;25.10;52.90
13115;DHT22;6623;52.120;8.660;2023-07-24T09:56:06;25.10;53.00
13115;DHT22;6623;52.120;8.660;2023-07-24T09:58:34;25.10;53.00
13115;DHT22;6623;52.120;8.660;2023-07-24T10:01:02;25.10;53.10
13115;DHT22;6623;52.120;8.660;2023-07-24T10:03:32;25.10;53.20
13115;DHT22;6623;52.120;8.660;2023-07-24T10:05:59;25.10;53.10
13115;DHT22;6623;52.120;8.660;2023-07-24T10:08:25;25.10;53.20
13115;DHT22;6623;52.120;8.660;2023-07-24T10:10:51;25.10;53.20
13115;DHT22;6623;52.120;8.660;2023-07-24T10:13:19;25.10;53.10
13115;DHT22;6623;52.120;8.660;2023-07-24T10:15:47;25.10;53.10
13115;DHT22;6623;52.120;8.660;2023-07-24T10:18:14;25.10;53.10
13115;DHT22;6623;52.120;8.660;2023-07-24T10:20:41;25.10;53.10
13115;DHT22;6623;52.120;8.660;2023-07-24T10:23:09;25.10;53.10
13115;DHT22;6623;52.120;8.660;2023-07-24T10:25:37;25.10;53.10
13115;DHT22;6623;52.120;8.660;2023-07-24T10:28:07;25.10;53.10
13115;DHT22;6623;52.120;8.660;2023-07-24T10:30:37;25.10;53.10
13115;DHT22;6623;52.120;8.660;2023-07-24T10:33:12;25.10;53.10
13115;DHT22;6623;52.120;8.660;2023-07-24T10:35:42;25.10;53.10
13115;DHT22;6623;52.120;8.660;2023-07-24T10:38:09;25.10;53.10
13115;DHT22;6623;52.120;8.660;2023-07-24T10:40:34;25.10;53.10
13115;DHT22;6623;52.120;8.660;2023-07-24T10:43:03;25.10;53.10
13115;DHT22;6623;52.120;8.660;2023-07-24T10:48:04;25.10;53.10
13115;DHT22;6623;52.120;8.660;2023-07-24T10:50:37;25.10;53.00
13115;DHT22;6623;52.120;8.660;2023-07-24T10:53:03;25.10;53.00
13115;DHT22;6623;52.120;8.660;2023-07-24T10:55:28;25.10;53.00
13115;DHT22;6623;52.120;8.660;2023-07-24T10:57:54;25.10;53.00
13115;DHT22;6623;52.120;8.660;2023-07-24T11:00:19;25.10;52.90
13115;DHT22;6623;52.120;8.660;2023-07-24T11:02:45;25.10;53.00
13115;DHT22;6623;52.120;8.660;2023-07-24T11:05:12;25.10;52.90
13115;DHT22;6623;52.120;8.660;2023-07-24T11:07:39;25.10;52.90
13115;DHT22;6623;52.120;8.660;2023-07-24T11:10:15;25.10;52.90
13115;DHT22;6623;52.120;8.660;2023-07-24T11:12:40;25.10;53.50
13115;DHT22;6623;52.120;8.660;2023-07-24T11:15:06;25.10;52.90
13115;DHT22;6623;52.120;8.660;2023-07-24T11:17:37;25.10;52.90
13115;DHT22;6623;52.120;8.660;2023-07-24T11:20:11;25.10;52.90
13115;DHT22;6623;52.120;8.660;2023-07-24T11:22:38;25.10;52.90
13115;DHT22;6623;52.120;8.660;2023-07-24T11:25:05;25.10;52.90
13115;DHT22;6623;52.120;8.660;2023-07-24T11:27:32;25.10;52.90
13115;DHT22;6623;52.120;8.660;2023-07-24T11:29:57;25.10;52.90
13115;DHT22;6623;52.120;8.660;2023-07-24T11:32:23;25.10;52.90
13115;DHT22;6623;52.120;8.660;2023-07-24T11:34:49;25.10;53.00
13115;DHT22;6623;52.120;8.660;2023-07-24T11:37:16;25.10;53.00
13115;DHT22;6623;52.120;8.660;2023-07-24T11:39:42;25.10;53.00
13115;DHT22;6623;52.120;8.660;2023-07-24T11:42:08;25.10;53.00
13115;DHT22;6623;52.120;8.660;2023-07-24T11:44:33;25.10;53.00
13115;DHT22;6623;52.120;8.660;2023-07-24T11:47:03;25.10;53.00
13115;DHT22;6623;52.120;8.660;2023-07-24T11:49:30;25.10;53.10
13115;DHT22;6623;52.120;8.660;2023-07-24T11:52:04;25.10;53.10
13115;DHT22;6623;52.120;8.660;2023-07-24T11:54:30;25.10;53.10
13115;DHT22;6623;52.120;8.660;2023-07-24T11:56:56;25.10;53.10
13115;DHT22;6623;52.120;8.660;2023-07-24T11:59:21;25.10;53.10
13115;DHT22;6623;52.120;8.660;2023-07-24T12:01:47;25.10;53.20
13115;DHT22;6623;52.120;8.660;2023-07-24T12:04:14;25.10;53.20
13115;DHT22;6623;52.120;8.660;2023-07-24T12:06:39;25.10;53.30
13115;DHT22;6623;52.120;8.660;2023-07-24T12:09:05;25.10;53.30
13115;DHT22;6623;52.120;8.660;2023-07-24T12:11:31;25.10;53.30
13115;DHT22;6623;52.120;8.660;2023-07-24T12:13:57;25.10;53.40
13115;DHT22;6623;52.120;8.660;2023-07-24T12:16:23;25.10;53.40
13115;DHT22;6623;52.120;8.660;2023-07-24T12:18:49;25.10;53.40
13115;DHT22;6623;52.120;8.660;2023-07-24T12:21:14;25.10;54.00
13115;DHT22;6623;52.120;8.660;2023-07-24T12:23:40;25.10;53.40
13115;DHT22;6623;52.120;8.660;2023-07-24T12:26:05;25.10;53.50
13115;DHT22;6623;52.120;8.660;2023-07-24T12:28:31;25.10;53.50
13115;DHT22;6623;52.120;8.660;2023-07-24T12:30:57;25.10;53.50
13115;DHT22;6623;52.120;8.660;2023-07-24T12:33:22;25.10;53.50
13115;DHT22;6623;52.120;8.660;2023-07-24T12:35:49;25.10;53.50
13115;DHT22;6623;52.120;8.660;2023-07-24T12:38:15;25.10;53.60
13115;DHT22;6623;52.120;8.660;2023-07-24T12:40:40;25.10;53.60
13115;DHT22;6623;52.120;8.660;2023-07-24T12:43:06;25.10;53.60
13115;DHT22;6623;52.120;8.660;2023-07-24T12:45:31;25.10;53.60
13115;DHT22;6623;52.120;8.660;2023-07-24T12:47:57;25.10;53.60
13115;DHT22;6623;52.120;8.660;2023-07-24T12:50:23;25.10;53.60
13115;DHT22;6623;52.120;8.660;2023-07-24T12:52:51;25.10;53.60
13115;DHT22;6623;52.120;8.660;2023-07-24T12:55:17;25.10;53.60
13115;DHT22;6623;52.120;8.660;2023-07-24T12:57:42;25.10;53.60
13115;DHT22;6623;52.120;8.660;2023-07-24T13:00:08;25.10;53.60
13115;DHT22;6623;52.120;8.660;2023-07-24T13:02:34;25.10;53.60
13115;DHT22;6623;52.120;8.660;2023-07-24T13:05:00;25.10;53.70
13115;DHT22;6623;52.120;8.660;2023-07-24T13:07:26;25.10;53.70
13115;DHT22;6623;52.120;8.660;2023-07-24T13:09:51;25.10;53.80
13115;DHT22;6623;52.120;8.660;2023-07-24T13:12:17;25.10;53.80
13115;DHT22;6623;52.120;8.660;2023-07-24T13:14:43;25.10;53.70
13115;DHT22;6623;52.120;8.660;2023-07-24T13:17:09;25.10;53.80
13115;DHT22;6623;52.120;8.660;2023-07-24T13:19:34;25.10;53.80
13115;DHT22;6623;52.120;8.660;2023-07-24T13:22:00;25.10;53.80
13115;DHT22;6623;52.120;8.660;2023-07-24T13:24:26;25.10;53.80
13115;DHT22;6623;52.120;8.660;2023-07-24T13:26:51;25.10;53.80
13115;DHT22;6623;52.120;8.660;2023-07-24T13:29:17;25.10;53.80
13115;DHT22;6623;52.120;8.660;2023-07-24T13:31:42;25.10;53.90
13115;DHT22;6623;52.120;8.660;2023-07-24T13:34:08;25.10;53.90
13115;DHT22;6623;52.120;8.660;2023-07-24T13:36:33;25.10;53.90
13115;DHT22;6623;52.120;8.660;2023-07-24T13:38:59;25.10;53.90
13115;DHT22;6623;52.120;8.660;2023-07-24T13:41:24;25.10;53.90
13115;DHT22;6623;52.120;8.660;2023-07-24T13:43:50;25.10;53.80
13115;DHT22;6623;52.120;8.660;2023-07-24T13:46:16;25.10;53.90
13115;DHT22;6623;52.120;8.660;2023-07-24T13:48:41;25.10;53.80
13115;DHT22;6623;52.120;8.660;2023-07-24T13:51:07;25.10;53.90
13115;DHT22;6623;52.120;8.660;2023-07-24T13:53:32;25.10;54.00
13115;DHT22;6623;52.120;8.660;2023-07-24T13:55:58;25.10;54.00
13115;DHT22;6623;52.120;8.660;2023-07-24T13:58:23;25.10;54.00
13115;DHT22;6623;52.120;8.660;2023-07-24T14:00:49;25.10;54.00
13115;DHT22;6623;52.120;8.660;2023-07-24T14:03:14;25.10;54.00
13115;DHT22;6623;52.120;8.660;2023-07-24T14:05:40;25.10;54.00
13115;DHT22;6623;52.120;8.660;2023-07-24T14:08:07;25.10;54.00
13115;DHT22;6623;52.120;8.660;2023-07-24T14:10:32;25.10;54.00
13115;DHT22;6623;52.120;8.660;2023-07-24T14:12:58;25.10;53.90
13115;DHT22;6623;52.120;8.660;2023-07-24T14:15:24;25.10;53.90
13115;DHT22;6623;52.120;8.660;2023-07-24T14:17:49;25.10;53.80
13115;DHT22;6623;52.120;8.660;2023-07-24T14:20:15;25.10;53.80
13115;DHT22;6623;52.120;8.660;2023-07-24T14:22:40;25.10;53.90
13115;DHT22;6623;52.120;8.660;2023-07-24T14:25:06;25.10;54.50
13115;DHT22;6623;52.120;8.660;2023-07-24T14:27:32;25.10;53.90
13115;DHT22;6623;52.120;8.660;2023-07-24T14:29:58;25.10;53.90
13115;DHT22;6623;52.120;8.660;2023-07-24T14:32:23;25.10;53.90
13115;DHT22;6623;52.120;8.660;2023-07-24T14:34:53;25.10;53.90
13115;DHT22;6623;52.120;8.660;2023-07-24T14:37:19;25.10;53.90
13115;DHT22;6623;52.120;8.660;2023-07-24T14:39:45;25.10;53.90
13115;DHT22;6623;52.120;8.660;2023-07-24T14:42:11;25.10;53.90
13115;DHT22;6623;52.120;8.660;2023-07-24T14:44:37;25.10;53.90
13115;DHT22;6623;52.120;8.660;2023-07-24T14:47:02;25.10;53.90
13115;DHT22;6623;52.120;8.660;2023-07-24T14:49:28;25.10;54.00
13115;DHT22;6623;52.120;8.660;2023-07-24T14:51:53;25.10;53.90
13115;DHT22;6623;52.120;8.660;2023-07-24T14:54:19;25.10;53.90
13115;DHT22;6623;52.120;8.660;2023-07-24T14:56:45;25.10;54.00
13115;DHT22;6623;52.120;8.660;2023-07-24T14:59:10;25.10;54.00
13115;DHT22;6623;52.120;8.660;2023-07-24T15:01:36;25.10;53.90
13115;DHT22;6623;52.120;8.660;2023-07-24T15:04:02;25.10;53.90
13115;DHT22;6623;52.120;8.660;2023-07-24T15:06:28;25.10;54.00
13115;DHT22;6623;52.120;8.660;2023-07-24T15:08:53;25.10;54.00
13115;DHT22;6623;52.120;8.660;2023-07-24T15:11:21;25.10;54.00
13115;DHT22;6623;52.120;8.660;2023-07-24T15:13:48;25.10;54.00
13115;DHT22;6623;52.120;8.660;2023-07-24T15:16:14;25.10;54.00
13115;DHT22;6623;52.120;8.660;2023-07-24T15:18:39;25.10;54.00
13115;DHT22;6623;52.120;8.660;2023-07-24T15:21:05;25.10;54.00
13115;DHT22;6623;52.120;8.660;2023-07-24T15:23:30;25.10;54.00
13115;DHT22;6623;52.120;8.660;2023-07-24T15:25:56;25.10;54.60
13115;DHT22;6623;52.120;8.660;2023-07-24T15:28:21;25.10;54.00
13115;DHT22;6623;52.120;8.660;2023-07-24T15:30:48;25.10;54.10
13115;DHT22;6623;52.120;8.660;2023-07-24T15:33:14;25.10;54.10
13115;DHT22;6623;52.120;8.660;2023-07-24T15:35:39;25.10;54.10
13115;DHT22;6623;52.120;8.660;2023-07-24T15:38:05;25.10;54.10
13115;DHT22;6623;52.120;8.660;2023-07-24T15:40:31;25.10;54.10